Time;durP1;ratioP1;P1;durP2;ratioP2;P2;SDS_P1;SDS_P2;PMS_P1;PMS_P2;Temp;Humidity;BMP_temperature;BMP_pressure;BME280_temperature;BME280_humidity;BME280_pressure;Samples;Min_cycle;Max_cycle;Signal;HPM_P1;HPM_P2
2023/12/15 00:01:28;;;;;;;7.83;5.33;;;;;;;9.52;60.44;98527.50;5018426;28;20302;-71
2023/12/15 00:03:53;;;;;;;10.33;6.00;;;;;;;9.57;59.98;98523.72;5034387;28;20232;-71
2023/12/15 00:06:19;;;;;;;8.20;5.80;;;;;;;9.58;60.31;98523.59;5037464;28;20206;-72
2023/12/15 00:08:44;;;;;;;7.10;5.07;;;;;;;9.60;59.89;98534.81;5023850;28;20698;-70
2023/12/15 00:11:10;;;;;;;7.50;5.50;;;;;;;9.56;60.08;98536.00;5030441;28;20704;-73
2023/12/15 00:13:35;;;;;;;7.47;5.20;;;;;;;9.53;59.31;98531.00;5031998;28;20655;-71
2023/12/15 00:16:01;;;;;;;7.57;4.70;;;;;;;9.57;59.64;98535.06;5026123;28;20278;-70
2023/12/15 00:18:26;;;;;;;8.60;5.60;;;;;;;9.59;59.71;98540.97;5029876;28;20196;-71
2023/12/15 00:20:51;;;;;;;7.50;5.00;;;;;;;9.60;59.49;98537.41;5040463;28;20209;-70
2023/12/15 00:23:17;;;;;;;7.17;4.40;;;;;;;9.55;59.69;98539.56;5036851;28;20853;-73
2023/12/15 00:25:42;;;;;;;7.60;5.53;;;;;;;9.57;59.70;98552.53;5035664;28;20182;-71
2023/12/15 00:28:08;;;;;;;6.50;5.43;;;;;;;9.50;60.00;98552.13;5032046;28;20211;-72
2023/12/15 00:30:33;;;;;;;7.57;4.77;;;;;;;9.48;59.62;98559.25;5029291;28;20274;-71
2023/12/15 00:32:59;;;;;;;6.53;4.60;;;;;;;9.43;59.90;98557.00;5042713;28;20190;-70
2023/12/15 00:35:24;;;;;;;6.70;5.00;;;;;;;9.45;59.67;98546.44;5031804;28;20290;-71
2023/12/15 00:37:49;;;;;;;6.47;3.90;;;;;;;9.47;60.09;98557.59;5044133;28;20273;-72
2023/12/15 00:40:16;;;;;;;5.40;4.50;;;;;;;9.49;59.74;98560.94;5038747;28;20770;-71
2023/12/15 00:42:42;;;;;;;4.87;3.90;;;;;;;9.49;59.42;98567.03;5044224;28;20644;-74
2023/12/15 00:45:08;;;;;;;4.70;3.30;;;;;;;9.41;59.68;98569.34;5026785;28;20462;-72
2023/12/15 00:47:33;;;;;;;3.80;3.20;;;;;;;9.40;59.93;98578.13;5038293;28;20265;-72
2023/12/15 00:49:59;;;;;;;3.43;3.13;;;;;;;9.39;59.34;98576.47;5039746;28;21201;-72
2023/12/15 00:52:24;;;;;;;4.10;3.20;;;;;;;9.34;59.58;98589.88;5024222;28;20238;-73
2023/12/15 00:54:50;;;;;;;3.33;2.70;;;;;;;9.36;60.28;98582.78;5037176;28;20209;-73
2023/12/15 00:57:15;;;;;;;3.37;2.93;;;;;;;9.32;60.00;98590.94;5036204;28;20192;-71
2023/12/15 00:59:41;;;;;;;6.83;3.07;;;;;;;9.27;60.41;98593.91;5034739;28;20225;-72
2023/12/15 01:02:07;;;;;;;4.27;2.50;;;;;;;9.32;59.66;98597.03;5033147;28;20294;-72
2023/12/15 01:04:33;;;;;;;4.17;3.57;;;;;;;9.40;59.88;98603.47;5038625;28;20273;-72
2023/12/15 01:06:58;;;;;;;2.77;2.43;;;;;;;9.37;59.20;98594.09;5040070;28;20518;-71
2023/12/15 01:09:25;;;;;;;3.37;2.87;;;;;;;9.32;59.23;98604.03;5047579;28;20272;-71
2023/12/15 01:11:50;;;;;;;3.77;3.07;;;;;;;9.24;59.42;98612.44;5041744;28;20664;-72
2023/12/15 01:14:16;;;;;;;3.10;2.90;;;;;;;9.26;59.50;98607.94;5046074;28;20433;-72
2023/12/15 01:16:48;;;;;;;4.23;3.27;;;;;;;9.18;60.02;98618.94;5058950;28;20203;-73
2023/12/15 01:19:17;;;;;;;3.70;3.40;;;;;;;9.17;59.90;98613.81;5059519;28;20340;-71
2023/12/15 01:21:43;;;;;;;4.43;3.67;;;;;;;9.25;59.26;98624.56;5054395;28;20503;-72
2023/12/15 01:24:08;;;;;;;5.60;4.30;;;;;;;9.21;59.14;98625.72;5059061;28;20441;-72
2023/12/15 01:26:34;;;;;;;4.87;4.20;;;;;;;9.20;59.22;98630.13;5055532;28;20512;-71
2023/12/15 01:28:59;;;;;;;6.70;4.93;;;;;;;9.21;59.07;98641.41;5052209;28;20221;-70
2023/12/15 01:31:25;;;;;;;9.30;6.53;;;;;;;9.19;58.92;98648.56;5054824;28;20205;-71
2023/12/15 01:33:50;;;;;;;9.10;5.97;;;;;;;9.17;59.55;98659.13;5046795;28;20188;-70
2023/12/15 01:36:16;;;;;;;7.80;5.80;;;;;;;9.17;58.80;98656.50;5045149;28;20270;-70
2023/12/15 01:38:42;;;;;;;7.23;5.70;;;;;;;9.20;59.06;98660.66;5048559;28;20179;-71
2023/12/15 01:41:07;;;;;;;7.93;6.23;;;;;;;9.19;58.89;98659.84;5042343;28;20695;-69
2023/12/15 01:43:33;;;;;;;7.20;5.70;;;;;;;9.22;59.09;98653.56;5033482;28;20682;-71
2023/12/15 01:45:58;;;;;;;11.10;6.00;;;;;;;9.23;59.18;98668.31;5042046;28;20566;-72
2023/12/15 01:48:24;;;;;;;8.57;5.80;;;;;;;9.29;58.97;98669.66;5036861;28;20207;-73
2023/12/15 01:50:49;;;;;;;9.50;6.30;;;;;;;9.25;58.35;98666.44;5041056;28;20242;-71
2023/12/15 01:53:15;;;;;;;9.17;5.53;;;;;;;9.14;58.24;98676.81;5037674;28;20191;-72
2023/12/15 01:55:40;;;;;;;8.70;6.10;;;;;;;9.17;58.25;98681.84;5026932;28;20180;-71
2023/12/15 01:58:05;;;;;;;9.57;6.10;;;;;;;9.20;58.28;98677.22;5026046;28;20764;-71
2023/12/15 02:00:31;;;;;;;9.93;5.97;;;;;;;9.27;58.07;98676.78;5026497;28;20841;-70
2023/12/15 02:02:56;;;;;;;9.37;6.00;;;;;;;9.22;58.66;98669.25;5040032;28;20191;-75
2023/12/15 02:05:22;;;;;;;8.93;6.40;;;;;;;9.21;58.79;98673.66;5040399;28;20281;-72
2023/12/15 02:07:47;;;;;;;9.47;6.43;;;;;;;9.26;58.21;98677.75;5041024;28;20285;-73
2023/12/15 02:10:12;;;;;;;9.57;6.50;;;;;;;9.30;58.59;98673.94;5028696;28;20218;-72
2023/12/15 02:12:38;;;;;;;8.73;6.10;;;;;;;9.24;57.92;98685.69;5034260;28;20286;-73
2023/12/15 02:15:04;;;;;;;7.80;5.73;;;;;;;9.27;57.95;98685.47;5028814;28;20709;-72
2023/12/15 02:17:29;;;;;;;10.13;6.00;;;;;;;9.10;58.18;98677.97;5033846;28;20668;-71
2023/12/15 02:19:55;;;;;;;8.33;5.97;;;;;;;9.13;58.21;98672.53;5035057;28;20547;-71
2023/12/15 02:22:25;;;;;;;8.97;5.90;;;;;;;9.13;58.30;98676.00;5040214;28;20223;-70
2023/12/15 02:24:50;;;;;;;8.07;6.37;;;;;;;9.06;58.74;98686.03;5033231;28;20206;-70
2023/12/15 02:27:15;;;;;;;9.40;5.97;;;;;;;9.10;58.45;98686.66;5029920;28;20533;-73
2023/12/15 02:29:41;;;;;;;7.93;6.23;;;;;;;9.09;58.79;98679.75;5041964;28;20184;-71
2023/12/15 02:32:06;;;;;;;8.43;6.20;;;;;;;9.10;58.58;98686.66;5030810;28;20310;-71
2023/12/15 02:34:32;;;;;;;7.97;5.47;;;;;;;9.07;58.89;98685.06;5028645;28;20182;-72
2023/12/15 02:36:57;;;;;;;10.80;6.33;;;;;;;9.04;59.02;98695.75;5046892;28;20190;-71
2023/12/15 02:39:23;;;;;;;8.60;6.23;;;;;;;8.99;58.32;98697.03;5033124;28;20533;-72
2023/12/15 02:41:48;;;;;;;11.13;6.40;;;;;;;9.00;59.36;98696.09;5041107;28;20256;-70
2023/12/15 02:44:13;;;;;;;8.33;5.90;;;;;;;8.94;58.82;98691.25;5040963;28;20196;-71
2023/12/15 02:46:39;;;;;;;7.90;5.83;;;;;;;8.92;58.87;98704.47;5037975;28;20219;-72
2023/12/15 02:49:04;;;;;;;10.10;6.90;;;;;;;8.88;58.89;98702.97;5030645;28;20191;-73
2023/12/15 02:51:31;;;;;;;8.10;6.13;;;;;;;8.80;58.73;98710.53;5036190;28;20212;-72
2023/12/15 02:53:57;;;;;;;10.53;5.97;;;;;;;8.90;59.56;98719.41;5035001;28;20196;-72
2023/12/15 02:56:23;;;;;;;8.23;5.97;;;;;;;8.96;58.98;98716.34;5039405;28;20457;-71
2023/12/15 02:58:48;;;;;;;9.50;6.77;;;;;;;9.05;58.90;98727.97;5042093;28;21142;-71
2023/12/15 03:01:14;;;;;;;12.03;6.97;;;;;;;9.07;59.37;98720.88;5029700;28;20696;-71
2023/12/15 03:03:39;;;;;;;10.03;6.90;;;;;;;9.07;58.98;98723.47;5024495;28;20243;-72
2023/12/15 03:06:05;;;;;;;9.53;6.73;;;;;;;9.02;58.78;98730.78;5030377;28;20182;-72
2023/12/15 03:08:31;;;;;;;8.50;5.83;;;;;;;8.85;59.80;98730.19;5035439;28;20195;-71
2023/12/15 03:10:57;;;;;;;9.57;6.50;;;;;;;8.91;60.32;98742.00;5041414;28;20210;-70
2023/12/15 03:13:26;;;;;;;7.80;6.00;;;;;;;8.97;60.42;98741.56;5046101;28;20192;-71
2023/12/15 03:15:51;;;;;;;8.40;5.80;;;;;;;9.00;60.31;98746.59;5039811;28;20433;-70
2023/12/15 03:18:17;;;;;;;10.13;6.80;;;;;;;8.97;59.98;98749.41;5029856;28;20434;-71
2023/12/15 03:20:44;;;;;;;10.20;6.50;;;;;;;9.01;59.85;98748.28;5034374;28;20496;-73
2023/12/15 03:23:10;;;;;;;8.73;6.47;;;;;;;9.00;59.59;98754.44;5036164;28;20195;-72
2023/12/15 03:25:35;;;;;;;7.73;5.90;;;;;;;9.03;60.27;98759.47;5030258;28;20435;-71
2023/12/15 03:28:00;;;;;;;7.73;6.40;;;;;;;9.03;60.20;98754.25;5038899;28;20225;-72
2023/12/15 03:30:26;;;;;;;9.00;6.67;;;;;;;9.04;60.17;98761.16;5042970;28;20731;-71
2023/12/15 03:32:51;;;;;;;10.53;6.00;;;;;;;9.03;60.14;98758.63;5030505;28;20180;-71
2023/12/15 03:35:17;;;;;;;8.10;5.90;;;;;;;9.03;60.11;98759.47;5024218;28;20184;-71
2023/12/15 03:37:43;;;;;;;11.00;6.47;;;;;;;9.05;60.03;98768.06;5041387;28;20195;-71
2023/12/15 03:40:09;;;;;;;8.50;6.10;;;;;;;9.07;60.20;98771.38;5037725;28;20452;-70
2023/12/15 03:42:34;;;;;;;9.33;5.87;;;;;;;8.96;60.83;98773.91;5044895;28;20295;-72
2023/12/15 03:45:00;;;;;;;7.20;5.10;;;;;;;8.86;60.17;98778.06;5043680;28;20434;-71
2023/12/15 03:47:25;;;;;;;10.20;5.70;;;;;;;8.95;60.54;98767.00;5037444;28;20189;-74
2023/12/15 03:49:51;;;;;;;7.03;5.50;;;;;;;8.99;59.77;98781.53;5039828;28;20210;-76
2023/12/15 03:52:16;;;;;;;8.40;5.47;;;;;;;8.97;59.32;98774.75;5039998;28;20266;-71
2023/12/15 03:54:42;;;;;;;7.13;5.80;;;;;;;9.03;59.39;98784.78;5038097;28;20215;-74
2023/12/15 03:57:07;;;;;;;5.60;5.00;;;;;;;9.04;59.10;98782.09;5037076;28;20225;-73
2023/12/15 03:59:32;;;;;;;5.90;5.20;;;;;;;9.06;58.73;98790.66;5034642;28;20270;-71
2023/12/15 04:01:58;;;;;;;6.80;4.93;;;;;;;9.05;58.89;98783.75;5046598;28;20719;-71
2023/12/15 04:04:23;;;;;;;7.33;4.83;;;;;;;9.12;58.69;98788.56;5044285;28;20221;-72
2023/12/15 04:06:49;;;;;;;8.00;4.93;;;;;;;9.12;59.19;98792.03;5029865;28;20595;-71
2023/12/15 04:09:14;;;;;;;7.90;5.77;;;;;;;9.03;59.78;98790.88;5041200;28;20203;-71
2023/12/15 04:11:40;;;;;;;6.03;4.90;;;;;;;9.09;59.68;98793.97;5036614;28;20264;-71
2023/12/15 04:14:05;;;;;;;6.20;5.27;;;;;;;9.08;60.58;98798.41;5027709;28;20198;-72
2023/12/15 04:16:31;;;;;;;7.37;5.13;;;;;;;9.03;60.30;98797.84;5023528;28;20613;-72
2023/12/15 04:19:00;;;;;;;7.13;5.50;;;;;;;9.00;60.35;98800.69;5019263;28;20231;-74
2023/12/15 04:21:25;;;;;;;11.20;6.00;;;;;;;9.09;59.32;98799.22;5021576;28;20288;-71
2023/12/15 04:23:51;;;;;;;9.57;5.80;;;;;;;9.12;59.20;98805.09;5041041;28;20457;-71
2023/12/15 04:26:17;;;;;;;6.73;5.13;;;;;;;9.15;58.71;98809.28;5036759;28;20558;-70
2023/12/15 04:28:43;;;;;;;8.13;5.17;;;;;;;9.11;58.98;98813.88;5028471;28;20917;-71
2023/12/15 04:31:14;;;;;;;7.83;5.13;;;;;;;9.16;58.63;98819.63;5044784;28;20524;-69
2023/12/15 04:33:40;;;;;;;6.27;4.83;;;;;;;9.15;58.78;98825.81;5038145;28;20245;-71
2023/12/15 04:36:07;;;;;;;10.03;5.80;;;;;;;9.17;59.72;98823.09;5034344;28;21330;-70
2023/12/15 04:38:33;;;;;;;8.10;5.90;;;;;;;9.10;60.08;98832.28;5030167;28;20657;-71
2023/12/15 04:40:58;;;;;;;8.93;5.60;;;;;;;9.12;60.30;98835.63;5046373;28;20453;-70
2023/12/15 04:43:24;;;;;;;7.50;5.73;;;;;;;9.07;60.31;98822.88;5041448;28;20189;-71
2023/12/15 04:45:49;;;;;;;7.30;5.47;;;;;;;9.06;60.70;98827.28;5032680;28;20177;-70
2023/12/15 04:48:15;;;;;;;7.20;5.53;;;;;;;9.03;60.51;98830.09;5036170;28;20176;-71
2023/12/15 04:50:40;;;;;;;12.20;6.47;;;;;;;9.05;60.47;98825.59;5038442;28;20199;-71
2023/12/15 04:53:06;;;;;;;7.33;5.60;;;;;;;9.07;61.05;98834.16;5015406;28;20202;-70
2023/12/15 04:55:32;;;;;;;8.37;5.43;;;;;;;9.09;61.35;98839.31;5018865;28;20222;-70
2023/12/15 04:57:57;;;;;;;8.63;6.53;;;;;;;9.08;61.28;98840.25;5025363;28;20461;-71
2023/12/15 05:00:23;;;;;;;8.90;6.80;;;;;;;9.06;61.22;98836.91;5026942;28;20220;-70
2023/12/15 05:02:49;;;;;;;10.97;7.53;;;;;;;9.12;60.77;98843.50;5031700;28;20222;-70
2023/12/15 05:05:15;;;;;;;11.97;6.97;;;;;;;9.13;60.99;98848.63;5037278;28;20605;-72
2023/12/15 05:07:40;;;;;;;9.20;6.37;;;;;;;9.13;60.92;98848.63;5038981;28;20433;-71
2023/12/15 05:10:07;;;;;;;8.27;6.50;;;;;;;9.17;61.05;98849.25;5035243;28;20423;-73
2023/12/15 05:12:34;;;;;;;8.13;6.13;;;;;;;9.20;61.24;98843.81;5033574;28;20257;-72
2023/12/15 05:15:00;;;;;;;9.83;6.20;;;;;;;9.21;60.74;98850.72;5034757;28;21105;-71
2023/12/15 05:17:26;;;;;;;8.97;6.63;;;;;;;9.24;59.66;98849.69;5041840;28;20481;-72
2023/12/15 05:19:51;;;;;;;6.50;5.63;;;;;;;9.26;59.57;98853.03;5039984;28;20486;-71
2023/12/15 05:22:16;;;;;;;8.63;6.70;;;;;;;9.26;60.11;98856.47;5040945;28;20297;-72
2023/12/15 05:24:43;;;;;;;8.57;6.87;;;;;;;9.28;60.01;98867.69;5039450;28;20274;-71
2023/12/15 05:27:08;;;;;;;9.33;6.37;;;;;;;9.28;60.26;98872.06;5039410;28;20180;-74
2023/12/15 05:29:34;;;;;;;9.27;6.40;;;;;;;9.32;60.26;98876.16;5023673;28;20435;-71
2023/12/15 05:32:00;;;;;;;9.17;6.53;;;;;;;9.38;60.00;98878.38;5037562;28;20225;-72
2023/12/15 05:34:25;;;;;;;8.23;6.50;;;;;;;9.35;60.28;98887.25;5026327;28;20672;-72
2023/12/15 05:36:50;;;;;;;11.50;8.37;;;;;;;9.32;60.40;98895.34;5041325;28;20195;-71
2023/12/15 05:39:16;;;;;;;28.30;16.50;;;;;;;9.25;61.01;98907.13;5027385;28;20274;-71
2023/12/15 05:41:42;;;;;;;406.43;188.20;;;;;;;9.16;61.29;98910.38;5033482;28;20211;-72
2023/12/15 05:44:07;;;;;;;110.53;55.03;;;;;;;9.16;61.36;98923.44;5036085;28;20629;-71
2023/12/15 05:46:35;;;;;;;46.10;27.00;;;;;;;9.09;61.36;98914.31;5031974;28;20475;-72
2023/12/15 05:49:01;;;;;;;40.93;24.57;;;;;;;9.15;61.91;98938.28;5040627;28;20266;-71
2023/12/15 05:51:26;;;;;;;37.87;23.77;;;;;;;9.23;61.69;98932.56;5033285;28;20545;-73
2023/12/15 05:53:52;;;;;;;23.00;15.10;;;;;;;9.26;60.93;98942.81;5032881;28;20289;-71
2023/12/15 05:56:17;;;;;;;13.93;9.90;;;;;;;9.27;60.50;98947.13;5036591;28;20188;-72
2023/12/15 05:58:43;;;;;;;9.80;7.30;;;;;;;9.23;60.00;98945.63;5037076;28;20709;-72
2023/12/15 06:01:09;;;;;;;9.03;7.00;;;;;;;9.26;59.62;98947.25;5031103;28;20215;-71
2023/12/15 06:03:34;;;;;;;8.53;7.10;;;;;;;9.22;59.85;98946.56;5031105;28;20445;-72
2023/12/15 06:06:00;;;;;;;7.77;6.80;;;;;;;9.30;59.90;98951.31;5046382;28;20270;-72
2023/12/15 06:08:26;;;;;;;8.00;6.40;;;;;;;9.29;60.01;98953.09;5035514;28;20222;-72
2023/12/15 06:10:51;;;;;;;8.53;7.03;;;;;;;9.37;60.23;98956.03;5045134;28;20207;-70
2023/12/15 06:13:17;;;;;;;9.03;6.40;;;;;;;9.38;59.65;98951.66;5037060;28;20433;-71
2023/12/15 06:15:42;;;;;;;9.03;6.53;;;;;;;9.34;59.46;98961.47;5035935;28;20230;-73
2023/12/15 06:18:08;;;;;;;8.17;6.97;;;;;;;9.31;59.58;98974.78;5034608;28;20357;-73
2023/12/15 06:20:33;;;;;;;9.70;7.20;;;;;;;9.26;59.92;98974.22;5035078;28;20214;-72
2023/12/15 06:22:58;;;;;;;10.80;7.00;;;;;;;9.20;60.15;98974.63;5038390;28;20297;-73
2023/12/15 06:25:24;;;;;;;8.67;6.50;;;;;;;9.27;60.26;98977.66;5025163;28;20188;-73
2023/12/15 06:27:49;;;;;;;9.17;6.63;;;;;;;9.32;59.21;98984.31;5033428;28;20210;-72
2023/12/15 06:30:15;;;;;;;8.17;6.10;;;;;;;9.38;58.95;98985.69;5038469;28;20242;-71
2023/12/15 06:32:40;;;;;;;11.10;7.20;;;;;;;9.39;58.69;98995.19;5038771;28;20203;-72
2023/12/15 06:35:06;;;;;;;8.60;6.87;;;;;;;9.41;58.52;98992.47;5037402;28;20270;-72
2023/12/15 06:37:31;;;;;;;11.10;7.20;;;;;;;9.31;58.82;98987.84;5037119;28;20183;-73
2023/12/15 06:39:57;;;;;;;9.20;6.53;;;;;;;9.32;58.80;99000.00;5035154;28;20719;-73
2023/12/15 06:42:22;;;;;;;9.60;6.73;;;;;;;9.30;58.83;98985.31;5039736;28;20231;-73
2023/12/15 06:44:48;;;;;;;8.03;6.37;;;;;;;9.29;58.64;99004.56;5046014;28;20183;-75
2023/12/15 06:47:13;;;;;;;8.30;6.10;;;;;;;9.27;57.95;98996.84;5027572;28;20192;-74
2023/12/15 06:49:39;;;;;;;9.30;6.20;;;;;;;9.23;58.64;99008.44;5038231;28;20219;-72
2023/12/15 06:52:05;;;;;;;9.57;6.40;;;;;;;9.32;58.69;99005.25;5038396;28;20627;-73
2023/12/15 06:54:31;;;;;;;8.67;6.40;;;;;;;9.28;58.69;99014.22;4992797;28;20234;-71
2023/12/15 06:56:56;;;;;;;9.77;6.27;;;;;;;9.34;59.06;99019.03;4982269;28;20425;-73
2023/12/15 06:59:22;;;;;;;7.67;6.50;;;;;;;9.34;59.24;99024.28;5022359;28;20252;-72
2023/12/15 07:01:47;;;;;;;7.47;6.43;;;;;;;9.37;59.16;99020.63;5040363;28;20203;-71
2023/12/15 07:04:13;;;;;;;9.53;6.00;;;;;;;9.42;59.41;99030.81;5027607;28;20199;-71
2023/12/15 07:06:38;;;;;;;12.60;7.13;;;;;;;9.38;59.49;99028.38;5034767;28;20267;-70
2023/12/15 07:09:04;;;;;;;9.80;7.40;;;;;;;9.43;59.54;99035.09;5040331;28;20210;-71
2023/12/15 07:11:29;;;;;;;7.70;6.40;;;;;;;9.44;59.18;99037.59;5034189;28;20203;-71
2023/12/15 07:13:55;;;;;;;6.80;6.10;;;;;;;9.45;59.11;99047.13;5032127;28;20200;-71
2023/12/15 07:16:20;;;;;;;8.73;6.60;;;;;;;9.47;59.37;99055.72;5048693;28;20273;-69
2023/12/15 07:18:46;;;;;;;10.87;6.73;;;;;;;9.48;59.30;99053.94;5041255;28;20203;-70
2023/12/15 07:21:11;;;;;;;6.00;5.40;;;;;;;9.50;59.46;99055.53;5048642;28;20234;-72
2023/12/15 07:23:37;;;;;;;7.13;5.87;;;;;;;9.62;60.29;99060.91;5042870;28;20275;-71
2023/12/15 07:26:04;;;;;;;9.90;6.60;;;;;;;9.75;61.71;99056.53;5042144;28;20559;-69
2023/12/15 07:28:29;;;;;;;11.77;6.50;;;;;;;9.91;61.70;99060.75;5045500;28;20423;-68
2023/12/15 07:30:55;;;;;;;9.30;6.87;;;;;;;9.86;59.02;99060.22;5030754;28;20945;-68
2023/12/15 07:33:20;;;;;;;8.63;6.63;;;;;;;9.90;58.96;99057.28;5037594;28;20279;-71
2023/12/15 07:35:46;;;;;;;9.17;7.10;;;;;;;9.94;58.51;99065.78;5034945;28;20183;-70
2023/12/15 07:38:11;;;;;;;8.00;6.30;;;;;;;9.93;58.16;99070.19;5038439;28;20224;-70
2023/12/15 07:40:36;;;;;;;9.00;6.83;;;;;;;9.99;58.93;99077.63;5040882;28;20299;-70
2023/12/15 07:43:02;;;;;;;13.47;6.43;;;;;;;10.07;59.33;99073.66;5032989;28;20183;-70
2023/12/15 07:45:28;;;;;;;9.77;6.97;;;;;;;10.17;59.58;99069.47;5031528;28;20210;-72
2023/12/15 07:47:54;;;;;;;10.07;7.03;;;;;;;10.25;59.38;99067.16;5037836;28;20188;-71
2023/12/15 07:50:20;;;;;;;9.17;6.60;;;;;;;10.27;57.68;99065.28;5039790;28;20179;-71
2023/12/15 07:52:45;;;;;;;8.13;6.07;;;;;;;10.29;57.58;99083.50;5037332;28;20461;-71
2023/12/15 07:55:11;;;;;;;8.90;6.60;;;;;;;10.37;58.26;99073.38;5037466;28;20745;-72
2023/12/15 07:57:36;;;;;;;11.07;6.80;;;;;;;10.36;57.55;99078.69;5042173;28;20206;-70
2023/12/15 08:00:05;;;;;;;23.60;15.20;;;;;;;10.42;57.96;99081.75;5027979;28;20235;-70
2023/12/15 08:02:31;;;;;;;34.33;18.33;;;;;;;10.51;58.34;99088.16;5027017;28;20241;-70
2023/12/15 08:04:56;;;;;;;18.00;10.67;;;;;;;10.56;58.07;99091.31;5023265;28;20456;-71
2023/12/15 08:07:22;;;;;;;28.30;16.27;;;;;;;10.40;56.85;99101.16;5018840;28;20272;-72
2023/12/15 08:09:47;;;;;;;39.13;20.90;;;;;;;10.31;57.72;99092.13;5023165;28;20315;-70
2023/12/15 08:12:13;;;;;;;34.77;19.10;;;;;;;10.25;58.31;99098.63;5021940;28;20223;-71
2023/12/15 08:14:39;;;;;;;10.53;8.70;;;;;;;10.17;57.94;99105.31;5011031;28;20203;-71
2023/12/15 08:17:04;;;;;;;15.00;8.17;;;;;;;10.13;57.29;99110.78;5029665;28;20203;-70
2023/12/15 08:19:31;;;;;;;9.87;7.43;;;;;;;10.07;57.16;99110.34;5011173;28;20184;-71
2023/12/15 08:21:58;;;;;;;10.67;7.70;;;;;;;9.98;57.29;99112.63;5027090;28;20564;-72
2023/12/15 08:24:23;;;;;;;9.53;7.90;;;;;;;10.00;57.50;99115.16;5014298;28;20431;-69
2023/12/15 08:26:49;;;;;;;8.53;6.90;;;;;;;9.99;57.21;99109.06;5034056;28;20454;-71
2023/12/15 08:29:15;;;;;;;8.00;6.73;;;;;;;9.96;57.50;99119.72;5017585;28;20243;-72
2023/12/15 08:31:40;;;;;;;11.20;7.37;;;;;;;9.98;57.45;99124.91;5017860;28;20703;-74
2023/12/15 08:34:05;;;;;;;12.73;8.17;;;;;;;9.92;57.64;99128.75;5028431;28;20195;-72
2023/12/15 08:36:31;;;;;;;8.40;7.30;;;;;;;9.88;57.81;99132.50;5028753;28;20282;-73
2023/12/15 08:38:56;;;;;;;11.30;8.33;;;;;;;9.91;57.76;99132.31;5031592;28;20224;-70
2023/12/15 08:41:22;;;;;;;15.03;7.60;;;;;;;9.93;58.19;99129.59;5020221;28;20295;-70
2023/12/15 08:43:48;;;;;;;9.93;7.30;;;;;;;9.94;58.04;99139.97;5036997;28;20250;-71
2023/12/15 08:46:13;;;;;;;12.43;7.20;;;;;;;9.93;58.25;99140.91;5022976;28;20222;-73
2023/12/15 08:48:39;;;;;;;13.53;7.80;;;;;;;9.82;58.83;99153.88;5040152;28;20437;-72
2023/12/15 08:51:04;;;;;;;9.77;7.97;;;;;;;9.48;58.89;99156.03;5038358;28;20290;-70
2023/12/15 08:53:30;;;;;;;12.63;8.00;;;;;;;9.54;59.17;99155.66;5034769;28;20199;-71
2023/12/15 08:55:55;;;;;;;8.47;7.10;;;;;;;9.56;59.24;99153.78;5026897;28;20196;-71
2023/12/15 08:58:23;;;;;;;11.63;8.40;;;;;;;9.68;59.00;99157.38;5026372;28;20219;-71
2023/12/15 09:00:48;;;;;;;14.40;8.40;;;;;;;9.58;59.69;99159.72;5023261;28;20796;-74
2023/12/15 09:03:14;;;;;;;11.93;8.87;;;;;;;9.47;60.17;99159.59;5031916;28;20510;-72
2023/12/15 09:05:39;;;;;;;13.37;9.10;;;;;;;9.44;60.44;99170.28;5024364;28;20274;-71
2023/12/15 09:08:05;;;;;;;13.20;8.50;;;;;;;9.43;60.62;99163.34;5028184;28;20258;-71
2023/12/15 09:10:33;;;;;;;12.97;9.80;;;;;;;9.56;60.37;99163.41;5025509;28;20275;-72
2023/12/15 09:13:01;;;;;;;12.30;9.33;;;;;;;9.60;60.12;99164.88;5024439;28;20184;-72
2023/12/15 09:15:27;;;;;;;10.83;9.13;;;;;;;9.55;60.53;99156.47;5033086;28;20510;-73
2023/12/15 09:17:52;;;;;;;12.50;8.90;;;;;;;9.52;60.26;99154.91;5033524;28;20514;-72
2023/12/15 09:20:18;;;;;;;14.00;9.50;;;;;;;9.59;60.19;99163.22;5021799;28;20779;-71
2023/12/15 09:22:44;;;;;;;15.00;9.67;;;;;;;9.72;60.08;99171.09;5035512;28;20756;-72
2023/12/15 09:25:09;;;;;;;10.97;8.40;;;;;;;9.77;59.92;99171.66;5024644;28;20188;-73
2023/12/15 09:27:35;;;;;;;12.03;8.60;;;;;;;9.78;60.02;99181.19;5029139;28;20427;-73
2023/12/15 09:30:00;;;;;;;13.90;9.63;;;;;;;9.80;60.04;99179.31;5018073;28;20680;-72
2023/12/15 09:32:26;;;;;;;13.33;9.37;;;;;;;9.80;59.94;99174.91;5025042;28;20211;-73
2023/12/15 09:34:51;;;;;;;11.60;8.90;;;;;;;9.88;60.10;99184.91;5015147;28;20211;-70
2023/12/15 09:37:17;;;;;;;13.93;9.07;;;;;;;9.96;60.01;99181.78;5039910;28;20203;-70
2023/12/15 09:39:42;;;;;;;9.90;8.37;;;;;;;9.91;59.43;99189.09;5013440;28;20613;-72
2023/12/15 09:42:08;;;;;;;12.50;9.50;;;;;;;9.98;59.78;99185.97;5029480;28;20212;-72
2023/12/15 09:44:33;;;;;;;12.53;9.33;;;;;;;10.10;59.41;99186.09;5031319;28;20200;-71
2023/12/15 09:46:59;;;;;;;10.63;8.60;;;;;;;10.16;59.15;99183.09;5031478;28;20569;-71
2023/12/15 09:49:25;;;;;;;11.63;9.07;;;;;;;10.22;59.38;99190.53;5029906;28;20613;-72
2023/12/15 09:51:51;;;;;;;11.90;8.77;;;;;;;10.22;59.29;99193.16;5032321;28;20207;-72
2023/12/15 09:54:17;;;;;;;12.40;9.30;;;;;;;10.29;58.89;99194.44;5020763;28;20434;-74
2023/12/15 09:56:43;;;;;;;12.80;9.23;;;;;;;10.39;59.33;99193.84;5034452;28;20274;-71
2023/12/15 09:59:09;;;;;;;14.23;9.13;;;;;;;10.36;59.29;99188.78;5034643;28;20790;-72
2023/12/15 10:01:35;;;;;;;13.80;9.30;;;;;;;10.51;58.86;99185.16;5032929;28;20472;-73
2023/12/15 10:04:00;;;;;;;13.50;9.70;;;;;;;10.69;59.15;99177.84;5020785;28;20469;-71
2023/12/15 10:06:25;;;;;;;14.30;9.63;;;;;;;10.91;58.48;99184.22;5015608;28;20540;-69
2023/12/15 10:08:51;;;;;;;12.57;9.30;;;;;;;11.25;58.13;99186.28;5030917;28;20184;-71
2023/12/15 10:11:17;;;;;;;12.40;8.80;;;;;;;11.51;56.70;99194.94;5021312;28;20210;-71
2023/12/15 10:13:43;;;;;;;14.63;9.03;;;;;;;11.67;56.31;99192.06;5029815;28;20194;-71
2023/12/15 10:16:09;;;;;;;13.30;9.50;;;;;;;11.79;55.47;99192.94;5024574;28;20518;-71
2023/12/15 10:18:35;;;;;;;11.90;9.10;;;;;;;11.36;55.23;99194.22;5023448;28;20619;-71
2023/12/15 10:21:01;;;;;;;11.07;9.03;;;;;;;11.37;55.78;99194.16;5026628;28;20493;-71
2023/12/15 10:23:27;;;;;;;11.43;8.27;;;;;;;11.40;55.59;99206.22;5029043;28;20629;-71
2023/12/15 10:25:53;;;;;;;12.53;9.20;;;;;;;11.45;55.92;99204.09;5023667;28;20202;-72
2023/12/15 10:28:20;;;;;;;11.57;7.90;;;;;;;11.62;55.68;99215.19;5024151;28;20440;-71
2023/12/15 10:30:45;;;;;;;11.87;9.50;;;;;;;11.59;55.95;99213.63;5021535;28;20442;-71
2023/12/15 10:33:11;;;;;;;11.50;8.90;;;;;;;11.39;55.67;99212.41;5031156;28;20503;-72
2023/12/15 10:35:36;;;;;;;9.90;8.07;;;;;;;11.42;55.29;99204.31;5026905;28;20191;-72
2023/12/15 10:38:02;;;;;;;10.80;8.27;;;;;;;11.45;55.40;99219.00;5035400;28;20188;-71
2023/12/15 10:40:28;;;;;;;10.13;7.90;;;;;;;11.39;55.69;99220.28;5019049;28;20254;-70
2023/12/15 10:42:53;;;;;;;10.40;8.40;;;;;;;11.43;55.46;99213.88;5017195;28;20185;-71
2023/12/15 10:45:20;;;;;;;10.03;7.47;;;;;;;11.56;56.00;99205.94;5023956;28;20567;-73
2023/12/15 10:47:48;;;;;;;9.80;8.30;;;;;;;11.83;55.97;99204.91;5026491;28;20521;-72
2023/12/15 10:50:14;;;;;;;11.93;7.23;;;;;;;11.88;55.10;99218.56;5029633;28;20435;-70
2023/12/15 10:52:40;;;;;;;8.87;7.77;;;;;;;11.92;54.97;99221.81;5033378;28;20455;-72
2023/12/15 10:55:06;;;;;;;11.37;7.90;;;;;;;11.91;54.82;99223.56;5021949;28;20431;-72
2023/12/15 10:57:32;;;;;;;10.13;7.33;;;;;;;11.81;54.74;99219.94;5030123;28;20204;-71
2023/12/15 10:59:57;;;;;;;8.70;7.43;;;;;;;11.74;54.54;99224.81;5022622;28;20523;-72
2023/12/15 11:02:24;;;;;;;11.20;8.20;;;;;;;11.78;54.87;99217.56;5022054;28;20219;-70
2023/12/15 11:04:51;;;;;;;10.53;7.30;;;;;;;11.78;55.01;99221.00;5021546;28;20188;-71
2023/12/15 11:07:21;;;;;;;8.83;7.10;;;;;;;11.79;54.61;99222.69;5039783;28;20490;-71
2023/12/15 11:09:47;;;;;;;7.70;6.90;;;;;;;11.79;55.34;99225.31;5018221;28;20439;-71
2023/12/15 11:12:22;;;;;;;8.40;7.30;;;;;;;11.63;54.98;99215.09;5023282;28;20470;-71
2023/12/15 11:14:59;;;;;;;10.67;6.90;;;;;;;11.53;54.77;99222.78;5026948;28;20187;-71
2023/12/15 11:17:25;;;;;;;8.87;6.73;;;;;;;11.52;54.66;99221.09;5025906;28;20437;-71
2023/12/15 11:19:51;;;;;;;8.90;6.80;;;;;;;11.64;54.90;99221.16;5037324;28;20468;-71
2023/12/15 11:22:17;;;;;;;11.77;6.90;;;;;;;11.73;54.88;99228.38;5022513;28;21034;-72
2023/12/15 11:24:43;;;;;;;9.23;7.00;;;;;;;11.75;55.23;99231.72;5032239;28;20519;-71
2023/12/15 11:27:13;;;;;;;13.27;7.30;;;;;;;11.81;55.08;99231.31;5020008;28;20432;-71
2023/12/15 11:29:38;;;;;;;11.53;6.97;;;;;;;11.93;55.55;99247.13;5014674;28;20433;-71